Time;durP1;ratioP1;P1;durP2;ratioP2;P2;SDS_P1;SDS_P2;PMS_P1;PMS_P2;Temp;Humidity;BMP_temperature;BMP_pressure;BME280_temperature;BME280_humidity;BME280_pressure;Samples;Min_cycle;Max_cycle;Signal;HPM_P1;HPM_P2
2022/12/10 00:01:18;;;;;;;27.23;15.33;;;0.40;99.90;;;;;;5023539;28;20212;-62
2022/12/10 00:03:44;;;;;;;29.10;14.30;;;0.40;99.90;;;;;;5030952;28;20169;-61
2022/12/10 00:06:12;;;;;;;40.53;15.30;;;0.50;99.90;;;;;;5033139;28;20271;-62
2022/12/10 00:08:39;;;;;;;33.53;15.50;;;0.60;99.90;;;;;;5050159;28;20184;-61
2022/12/10 00:11:08;;;;;;;30.87;15.10;;;0.30;99.90;;;;;;5050855;28;20667;-61
2022/12/10 00:13:35;;;;;;;32.83;15.53;;;0.30;99.90;;;;;;5047075;28;20166;-60
2022/12/10 00:16:02;;;;;;;34.87;15.67;;;0.30;99.90;;;;;;5031169;28;20178;-60
2022/12/10 00:18:28;;;;;;;32.77;15.50;;;0.10;99.90;;;;;;5013394;28;20600;-61
2022/12/10 00:20:54;;;;;;;31.40;15.30;;;0.60;99.90;;;;;;5040889;28;20177;-60
2022/12/10 00:23:20;;;;;;;25.97;14.63;;;;;;;;;;5050845;28;20615;-61
2022/12/10 00:25:46;;;;;;;27.27;14.43;;;0.50;99.90;;;;;;5050678;28;20207;-60
2022/12/10 00:28:12;;;;;;;33.40;14.97;;;;;;;;;;5050729;28;20192;-61
2022/12/10 00:30:38;;;;;;;39.07;17.03;;;0.40;99.90;;;;;;5050076;28;20205;-61
2022/12/10 00:33:04;;;;;;;36.17;16.67;;;0.40;99.90;;;;;;5050515;28;20812;-62
2022/12/10 00:35:30;;;;;;;46.70;18.40;;;;;;;;;;5047155;28;20240;-62
2022/12/10 00:37:56;;;;;;;33.83;15.57;;;0.60;99.90;;;;;;5043987;28;20184;-61
2022/12/10 00:40:22;;;;;;;26.70;12.67;;;0.50;99.90;;;;;;5033784;28;20263;-61
2022/12/10 00:42:48;;;;;;;27.27;13.10;;;0.30;99.90;;;;;;5050830;28;20225;-61
2022/12/10 00:45:13;;;;;;;25.53;12.50;;;0.30;99.90;;;;;;5050814;28;20203;-62
2022/12/10 00:47:39;;;;;;;24.87;12.33;;;0.50;99.90;;;;;;5050705;28;20187;-60
2022/12/10 00:50:05;;;;;;;23.57;12.63;;;0.10;99.90;;;;;;5050254;28;20201;-61
2022/12/10 00:52:31;;;;;;;29.27;14.63;;;0.30;99.90;;;;;;5050117;28;20181;-61
2022/12/10 00:54:57;;;;;;;31.83;15.60;;;;;;;;;;5049982;28;20189;-61
2022/12/10 00:57:24;;;;;;;27.20;14.03;;;0.30;99.90;;;;;;5042966;28;20298;-61
2022/12/10 00:59:50;;;;;;;31.97;14.37;;;0.20;99.90;;;;;;5042508;28;20181;-61
2022/12/10 01:02:15;;;;;;;29.67;14.27;;;0.10;99.90;;;;;;5044860;28;20676;-60
2022/12/10 01:04:41;;;;;;;30.40;14.23;;;0.10;99.90;;;;;;5053613;28;20173;-60
2022/12/10 01:07:06;;;;;;;33.83;15.23;;;0.20;99.90;;;;;;5054399;28;20668;-61
2022/12/10 01:09:32;;;;;;;35.27;15.47;;;0.40;99.90;;;;;;5050048;28;20201;-60
2022/12/10 01:12:01;;;;;;;37.90;15.97;;;0.40;99.90;;;;;;5043315;28;20173;-61
2022/12/10 01:14:30;;;;;;;34.20;15.03;;;0.10;99.90;;;;;;5034378;28;20228;-61
2022/12/10 01:16:59;;;;;;;27.00;13.50;;;0.20;99.90;;;;;;5052487;28;20168;-61
2022/12/10 01:19:25;;;;;;;34.67;14.33;;;0.20;99.90;;;;;;5054220;28;20161;-61
2022/12/10 01:21:54;;;;;;;42.63;15.40;;;0.20;99.90;;;;;;5054265;28;20188;-60
2022/12/10 01:24:21;;;;;;;31.23;14.80;;;0.20;99.90;;;;;;5053983;28;20189;-60
2022/12/10 01:26:46;;;;;;;27.20;12.97;;;-0.30;99.90;;;;;;5054038;28;20264;-61
2022/12/10 01:29:12;;;;;;;28.83;12.93;;;-0.10;99.90;;;;;;5034711;28;20231;-61
2022/12/10 01:31:38;;;;;;;25.20;12.67;;;0.00;99.90;;;;;;5033976;28;20648;-61
2022/12/10 01:34:06;;;;;;;33.50;14.90;;;0.20;99.90;;;;;;5033780;28;20780;-60
2022/12/10 01:36:43;;;;;;;36.63;16.27;;;0.10;99.90;;;;;;5033988;28;20202;-60
2022/12/10 01:39:11;;;;;;;38.27;16.63;;;-0.20;99.90;;;;;;5033982;28;20181;-61
2022/12/10 01:41:43;;;;;;;40.00;17.37;;;0.10;99.90;;;;;;5033870;28;20235;-61
2022/12/10 01:44:09;;;;;;;27.80;15.07;;;0.20;99.90;;;;;;5033769;28;20759;-61
2022/12/10 01:46:37;;;;;;;30.67;14.70;;;0.00;99.90;;;;;;5045672;28;20264;-61
2022/12/10 01:49:06;;;;;;;32.20;14.80;;;-0.20;99.90;;;;;;5053375;28;20570;-61
2022/12/10 01:51:34;;;;;;;29.63;14.37;;;0.00;99.90;;;;;;5045560;28;20201;-61
2022/12/10 01:54:01;;;;;;;32.83;15.60;;;0.00;99.90;;;;;;5052843;28;20239;-60
2022/12/10 01:56:27;;;;;;;37.17;16.37;;;;;;;;;;5049551;28;20193;-61
2022/12/10 01:58:55;;;;;;;31.03;15.70;;;0.00;99.90;;;;;;5048572;28;20311;-61
2022/12/10 02:01:21;;;;;;;35.10;16.50;;;0.00;99.90;;;;;;5046250;28;20184;-61
2022/12/10 02:04:05;;;;;;;35.93;16.70;;;-0.10;99.90;;;;;;5043301;28;20549;-61
2022/12/10 02:06:52;;;;;;;35.17;16.87;;;0.00;99.90;;;;;;5028843;28;20268;-61
2022/12/10 02:09:43;;;;;;;33.50;15.43;;;-0.20;99.90;;;;;;5050676;28;20184;-61
2022/12/10 02:12:16;;;;;;;36.93;14.73;;;0.00;99.90;;;;;;5052295;28;20686;-61
2022/12/10 02:14:48;;;;;;;30.23;15.60;;;-0.20;99.90;;;;;;5035413;28;20644;-61
2022/12/10 02:17:19;;;;;;;35.37;16.20;;;-0.10;99.90;;;;;;5033196;28;20234;-62
2022/12/10 02:20:03;;;;;;;33.80;14.57;;;0.00;99.90;;;;;;5033210;28;20166;-61
2022/12/10 02:22:34;;;;;;;27.13;14.50;;;-0.10;99.90;;;;;;5033026;28;20205;-61
2022/12/10 02:25:01;;;;;;;32.70;15.17;;;0.00;99.90;;;;;;5035043;28;20188;-60
2022/12/10 02:27:45;;;;;;;30.07;15.07;;;-0.20;99.90;;;;;;5052567;28;20192;-59
2022/12/10 02:30:11;;;;;;;37.10;15.40;;;0.10;99.90;;;;;;5052804;28;20265;-59
2022/12/10 02:32:41;;;;;;;38.37;16.97;;;-0.10;99.90;;;;;;5052592;28;20176;-60
2022/12/10 02:35:12;;;;;;;32.47;15.20;;;-0.40;99.90;;;;;;5052795;28;20355;-60
2022/12/10 02:37:45;;;;;;;34.97;16.20;;;-0.10;99.90;;;;;;5052743;28;20197;-60
2022/12/10 02:40:17;;;;;;;35.73;16.67;;;-0.10;99.90;;;;;;5052560;28;20172;-60
2022/12/10 02:42:45;;;;;;;36.73;16.40;;;-0.10;99.90;;;;;;5033545;28;20239;-61
2022/12/10 02:45:12;;;;;;;37.23;15.77;;;-0.30;99.90;;;;;;5048394;28;20221;-61
2022/12/10 02:47:39;;;;;;;32.20;14.93;;;-0.30;99.90;;;;;;5032501;28;20266;-60
2022/12/10 02:50:07;;;;;;;33.97;15.57;;;-0.30;99.90;;;;;;5028202;28;20663;-60
2022/12/10 02:52:33;;;;;;;29.00;14.67;;;-0.40;99.90;;;;;;5044639;28;20211;-61
2022/12/10 02:54:59;;;;;;;29.53;15.13;;;;;;;;;;5051513;28;20248;-60
2022/12/10 02:57:33;;;;;;;33.63;15.60;;;-0.20;99.90;;;;;;5052050;28;20266;-60
2022/12/10 03:00:03;;;;;;;29.23;14.83;;;-0.30;99.90;;;;;;5049162;28;20664;-61
2022/12/10 03:02:52;;;;;;;26.23;13.97;;;-0.40;99.90;;;;;;5047052;28;20212;-60
2022/12/10 03:05:33;;;;;;;34.20;14.40;;;-0.50;99.90;;;;;;5036096;28;20200;-60
2022/12/10 03:08:12;;;;;;;34.10;15.37;;;-0.50;99.90;;;;;;5051888;28;20183;-60
2022/12/10 03:11:03;;;;;;;31.20;15.13;;;-0.50;99.90;;;;;;5047642;28;20299;-60
2022/12/10 03:13:37;;;;;;;26.83;14.40;;;-0.50;99.90;;;;;;5036859;28;20173;-60
2022/12/10 03:16:03;;;;;;;31.77;14.37;;;-0.40;99.90;;;;;;5034908;28;20189;-60
2022/12/10 03:18:31;;;;;;;32.23;16.17;;;0.70;99.90;;;;;;5052007;28;20166;-60
2022/12/10 03:20:59;;;;;;;37.53;16.37;;;0.20;99.90;;;;;;5051874;28;20636;-60
2022/12/10 03:23:28;;;;;;;40.13;16.00;;;-0.30;99.90;;;;;;5051353;28;20184;-61
2022/12/10 03:25:54;;;;;;;32.50;15.37;;;-0.30;99.90;;;;;;5051812;28;20656;-60
2022/12/10 03:28:22;;;;;;;31.13;14.97;;;0.50;99.90;;;;;;5047946;28;20259;-61
2022/12/10 03:30:49;;;;;;;44.67;15.10;;;-0.50;99.90;;;;;;5031704;28;20216;-61
2022/12/10 03:33:15;;;;;;;31.33;15.43;;;-0.50;99.90;;;;;;5031776;28;20180;-61
2022/12/10 03:35:42;;;;;;;32.67;14.53;;;-0.40;99.90;;;;;;5031629;28;20233;-60
2022/12/10 03:38:08;;;;;;;32.57;14.87;;;-0.40;99.90;;;;;;5031703;28;20177;-61
2022/12/10 03:40:34;;;;;;;30.80;14.93;;;-0.50;99.90;;;;;;5031633;28;20520;-62
2022/12/10 03:43:00;;;;;;;29.87;14.13;;;;;;;;;;5023791;28;20208;-61
2022/12/10 03:45:26;;;;;;;30.67;14.90;;;-0.40;99.90;;;;;;5031646;28;20170;-61
2022/12/10 03:47:51;;;;;;;28.07;14.77;;;-0.60;99.90;;;;;;5031796;28;20201;-64
2022/12/10 03:50:17;;;;;;;32.33;14.70;;;-0.50;99.90;;;;;;5049710;28;20221;-62
2022/12/10 03:52:43;;;;;;;31.03;14.70;;;;;;;;;;5032895;28;20181;-59
2022/12/10 03:55:09;;;;;;;35.00;14.63;;;-0.30;99.90;;;;;;5045967;28;20231;-62
2022/12/10 03:57:35;;;;;;;28.60;15.00;;;;;;;;;;5034151;28;20186;-60
2022/12/10 04:00:03;;;;;;;30.03;13.80;;;-0.50;99.90;;;;;;5043186;28;20262;-60
2022/12/10 04:02:29;;;;;;;34.60;14.63;;;-0.50;99.90;;;;;;5039760;28;20186;-62
2022/12/10 04:04:54;;;;;;;35.10;14.80;;;-0.60;99.90;;;;;;5032879;28;20271;-59
2022/12/10 04:07:20;;;;;;;31.77;14.40;;;-0.70;99.90;;;;;;5026775;28;20588;-60
2022/12/10 04:09:45;;;;;;;31.53;14.20;;;-0.60;99.90;;;;;;5004672;28;20197;-60
2022/12/10 04:12:11;;;;;;;35.97;14.97;;;;;;;;;;5031287;28;20688;-60
2022/12/10 04:17:21;;;;;;;33.27;15.40;;;;;;;;;;5050922;28;20196;-61
2022/12/10 04:19:47;;;;;;;31.93;15.53;;;-0.50;99.90;;;;;;5050924;28;20639;-60
2022/12/10 04:27:41;;;;;;;32.87;14.43;;;-0.70;99.90;;;;;;5047936;28;20709;-60
2022/12/10 04:30:09;;;;;;;29.50;14.57;;;-0.50;99.90;;;;;;5037507;28;20215;-60
2022/12/10 04:32:35;;;;;;;28.77;14.60;;;;;;;;;;5041729;28;20184;-60
2022/12/10 04:35:01;;;;;;;29.33;14.67;;;-0.50;99.90;;;;;;5047203;28;20225;-60
2022/12/10 04:37:28;;;;;;;30.67;14.60;;;-0.80;99.90;;;;;;5051040;28;20184;-61
2022/12/10 04:39:54;;;;;;;30.47;15.50;;;-0.60;99.90;;;;;;5049813;28;20279;-60
2022/12/10 04:42:21;;;;;;;32.47;14.83;;;-0.60;99.90;;;;;;5046780;28;20239;-60
2022/12/10 04:44:46;;;;;;;32.53;14.67;;;-0.80;99.90;;;;;;5038138;28;20173;-60
2022/12/10 04:47:12;;;;;;;31.37;13.80;;;-0.50;99.90;;;;;;5052500;28;20210;-60
2022/12/10 04:49:38;;;;;;;31.67;15.27;;;-0.30;99.90;;;;;;5045714;28;20211;-61
2022/12/10 04:52:04;;;;;;;29.33;14.97;;;;;;;;;;5054852;28;20683;-61
2022/12/10 04:54:31;;;;;;;30.10;14.70;;;-0.30;99.90;;;;;;5054342;28;20659;-61
2022/12/10 04:56:56;;;;;;;37.67;15.03;;;-0.60;99.90;;;;;;5050698;28;20185;-61
2022/12/10 04:59:22;;;;;;;28.50;14.70;;;-0.30;99.90;;;;;;5053910;28;20615;-61
2022/12/10 05:01:48;;;;;;;27.97;14.80;;;-0.30;99.90;;;;;;5041769;28;20178;-61
2022/12/10 05:04:16;;;;;;;28.00;13.93;;;-0.40;99.90;;;;;;5041350;28;20204;-59
2022/12/10 05:06:42;;;;;;;26.97;14.63;;;-0.40;99.90;;;;;;5025159;28;20577;-59
2022/12/10 05:09:09;;;;;;;32.60;14.73;;;-0.60;99.90;;;;;;5053757;28;20220;-62
2022/12/10 05:11:36;;;;;;;32.43;14.70;;;-0.70;99.90;;;;;;5042723;28;20232;-61
2022/12/10 05:14:02;;;;;;;32.70;14.47;;;;;;;;;;5054374;28;20284;-63
2022/12/10 05:16:29;;;;;;;25.83;13.60;;;-0.60;99.90;;;;;;5046091;28;20258;-62
2022/12/10 05:18:56;;;;;;;30.70;13.83;;;-0.30;99.90;;;;;;5034648;28;20198;-63
2022/12/10 05:21:24;;;;;;;26.93;14.13;;;-0.60;99.90;;;;;;5034259;28;20210;-60
2022/12/10 05:23:51;;;;;;;28.00;13.47;;;-0.40;99.90;;;;;;5034200;28;20268;-61
2022/12/10 05:26:21;;;;;;;33.07;14.37;;;-0.70;99.90;;;;;;5034270;28;20203;-60
2022/12/10 05:28:51;;;;;;;31.90;14.27;;;-0.40;99.90;;;;;;5043312;28;20218;-60
2022/12/10 05:31:20;;;;;;;31.83;15.33;;;-0.50;99.90;;;;;;5053944;28;20696;-60
2022/12/10 05:33:47;;;;;;;32.27;14.20;;;-1.00;99.90;;;;;;5053954;28;20224;-60
2022/12/10 05:36:15;;;;;;;22.60;12.23;;;-0.50;99.90;;;;;;5046082;28;20237;-61
2022/12/10 05:38:42;;;;;;;27.83;13.30;;;-0.70;99.90;;;;;;5036007;28;20521;-61
2022/12/10 05:41:16;;;;;;;25.03;12.10;;;-0.40;99.90;;;;;;5053845;28;20762;-60
2022/12/10 05:43:43;;;;;;;25.17;12.20;;;-0.50;99.90;;;;;;5053469;28;20184;-60
2022/12/10 05:46:21;;;;;;;27.77;12.13;;;-0.50;99.90;;;;;;5053252;28;20174;-60
2022/12/10 05:48:47;;;;;;;30.43;13.03;;;-0.50;99.90;;;;;;5046232;28;20710;-60
2022/12/10 05:51:18;;;;;;;29.10;12.70;;;-0.40;99.90;;;;;;5051742;28;20213;-59
2022/12/10 05:53:44;;;;;;;30.53;13.10;;;-1.00;99.90;;;;;;5053057;28;20216;-59
2022/12/10 05:56:12;;;;;;;22.70;11.10;;;-0.40;99.90;;;;;;5053514;28;20173;-59
2022/12/10 05:58:40;;;;;;;25.43;13.27;;;-0.40;99.90;;;;;;5051859;28;20177;-60
2022/12/10 06:01:15;;;;;;;32.20;15.40;;;-0.50;99.90;;;;;;5047769;28;20181;-60
2022/12/10 06:03:41;;;;;;;25.53;12.90;;;-0.50;99.90;;;;;;5039074;28;20262;-60
2022/12/10 06:06:07;;;;;;;28.57;11.87;;;0.50;99.90;;;;;;5052049;28;20242;-60
2022/12/10 06:08:34;;;;;;;35.53;13.73;;;-0.60;99.90;;;;;;5036652;28;20189;-60
2022/12/10 06:11:08;;;;;;;33.37;13.30;;;-0.30;99.90;;;;;;5034794;28;20628;-59
2022/12/10 06:13:34;;;;;;;27.37;12.50;;;;;;;;;;5046103;28;20211;-60
2022/12/10 06:16:08;;;;;;;26.47;13.33;;;-0.40;99.90;;;;;;5052826;28;20346;-60
2022/12/10 06:18:35;;;;;;;27.83;12.83;;;-0.50;99.90;;;;;;5052706;28;20177;-60
2022/12/10 06:21:08;;;;;;;26.70;12.20;;;-0.40;99.90;;;;;;5049539;28;20202;-60
2022/12/10 06:23:35;;;;;;;24.77;12.30;;;-0.30;99.90;;;;;;5037266;28;20181;-59
2022/12/10 06:26:13;;;;;;;34.57;12.70;;;-0.30;99.90;;;;;;5053085;28;20188;-61
2022/12/10 06:28:39;;;;;;;24.23;11.00;;;;;;;;;;5035642;28;20687;-60
2022/12/10 06:31:05;;;;;;;22.07;11.33;;;-0.40;99.90;;;;;;5030902;28;20426;-61
2022/12/10 06:33:31;;;;;;;23.10;10.70;;;-0.60;99.90;;;;;;5033176;28;20182;-61
2022/12/10 06:35:57;;;;;;;26.80;11.40;;;;;;;;;;5049610;28;20238;-60
2022/12/10 06:38:23;;;;;;;19.73;10.03;;;-0.20;99.90;;;;;;5046565;28;20173;-60
2022/12/10 06:40:49;;;;;;;41.47;11.73;;;-0.40;99.90;;;;;;5046451;28;20212;-60
2022/12/10 06:43:15;;;;;;;21.57;9.50;;;;;;;;;;5041591;28;20184;-60
2022/12/10 06:45:42;;;;;;;23.47;12.33;;;-0.20;99.90;;;;;;5052572;28;20180;-60
2022/12/10 06:48:07;;;;;;;30.83;12.50;;;-0.40;99.90;;;;;;5052071;28;20193;-60
2022/12/10 06:50:34;;;;;;;20.07;9.57;;;-0.30;99.90;;;;;;5048194;28;20236;-59
2022/12/10 06:53:00;;;;;;;20.77;9.30;;;-0.30;99.90;;;;;;5051152;28;20186;-59
2022/12/10 06:55:26;;;;;;;21.17;10.30;;;;;;;;;;5052213;28;20196;-60
2022/12/10 06:57:53;;;;;;;13.83;7.63;;;0.10;99.90;;;;;;5042209;28;20178;-59
2022/12/10 07:00:19;;;;;;;17.17;8.30;;;0.20;99.90;;;;;;5033130;28;20197;-59
2022/12/10 07:02:45;;;;;;;19.33;9.80;;;0.30;99.90;;;;;;5043679;28;20244;-60
2022/12/10 07:05:11;;;;;;;22.20;10.53;;;0.30;99.90;;;;;;5032331;28;20157;-59
2022/12/10 07:07:37;;;;;;;13.83;6.93;;;0.20;99.90;;;;;;5044569;28;20177;-60
2022/12/10 07:10:03;;;;;;;16.23;8.00;;;0.30;99.90;;;;;;5030081;28;20205;-59
2022/12/10 07:12:29;;;;;;;14.27;7.10;;;;;;;;;;5040356;28;20267;-60
2022/12/10 07:14:54;;;;;;;16.93;6.93;;;0.60;99.90;;;;;;5051913;28;20267;-59
2022/12/10 07:17:20;;;;;;;12.20;5.87;;;0.70;99.90;;;;;;5047969;28;20534;-60
2022/12/10 07:19:46;;;;;;;12.00;5.53;;;;;;;;;;5032089;28;20607;-60
2022/12/10 07:22:12;;;;;;;13.07;5.50;;;;;;;;;;5014158;28;20169;-60
2022/12/10 07:24:38;;;;;;;12.53;6.50;;;;;;;;;;5031839;28;20761;-60
2022/12/10 07:27:07;;;;;;;19.17;6.23;;;1.10;99.90;;;;;;5024057;28;20224;-60
2022/12/10 07:29:34;;;;;;;12.27;5.27;;;1.00;99.90;;;;;;5035841;28;20244;-61
2022/12/10 07:31:59;;;;;;;11.20;4.40;;;1.20;99.90;;;;;;5051743;28;20276;-61
2022/12/10 07:34:25;;;;;;;6.90;4.20;;;1.00;99.90;;;;;;5051810;28;20311;-60
2022/12/10 07:36:51;;;;;;;11.97;3.83;;;;;;;;;;5051603;28;20181;-60
2022/12/10 07:39:17;;;;;;;10.60;3.80;;;1.00;99.90;;;;;;5051591;28;20216;-62
2022/12/10 07:41:52;;;;;;;9.90;3.67;;;1.30;99.90;;;;;;5051355;28;20180;-62
2022/12/10 07:44:24;;;;;;;8.33;3.17;;;1.40;99.90;;;;;;5040813;28;20671;-62
2022/12/10 07:46:51;;;;;;;8.43;3.80;;;1.40;99.90;;;;;;5043535;28;20185;-62
2022/12/10 07:49:18;;;;;;;7.40;3.67;;;1.40;99.90;;;;;;5047445;28;20181;-61
2022/12/10 07:51:50;;;;;;;9.60;4.07;;;1.40;99.90;;;;;;5047206;28;20271;-62
2022/12/10 07:54:17;;;;;;;6.60;3.63;;;1.60;99.90;;;;;;5043443;28;20185;-61
2022/12/10 07:56:43;;;;;;;7.67;3.50;;;1.80;99.90;;;;;;5051042;28;20626;-61
2022/12/10 07:59:09;;;;;;;5.77;3.03;;;;;;;;;;5050981;28;20189;-61
2022/12/10 08:01:35;;;;;;;8.90;2.77;;;1.60;99.90;;;;;;5039729;28;20205;-61
2022/12/10 08:04:01;;;;;;;9.10;4.47;;;1.30;99.90;;;;;;5042856;28;20667;-62
2022/12/10 08:06:28;;;;;;;7.43;3.30;;;1.30;99.90;;;;;;5050432;28;20184;-61
2022/12/10 08:08:54;;;;;;;6.07;3.13;;;;;;;;;;5050867;28;20173;-63
2022/12/10 08:11:22;;;;;;;7.50;2.93;;;1.30;99.90;;;;;;5043283;28;20212;-61
2022/12/10 08:13:48;;;;;;;6.87;3.00;;;1.40;99.90;;;;;;5049418;28;20184;-59
2022/12/10 08:16:17;;;;;;;8.73;2.97;;;1.50;99.90;;;;;;5041228;28;20185;-60
2022/12/10 08:18:43;;;;;;;7.43;3.00;;;1.60;99.90;;;;;;5037642;28;20583;-60
2022/12/10 08:21:12;;;;;;;5.10;2.80;;;1.50;99.90;;;;;;5036605;28;20463;-60
2022/12/10 08:23:39;;;;;;;4.73;2.50;;;1.50;99.90;;;;;;5049686;28;20272;-60
2022/12/10 08:26:10;;;;;;;8.17;2.03;;;1.60;99.90;;;;;;5041889;28;20227;-61
2022/12/10 08:28:36;;;;;;;5.17;2.63;;;1.80;99.90;;;;;;5050075;28;20200;-61
2022/12/10 08:31:02;;;;;;;5.70;2.67;;;1.60;99.90;;;;;;5049334;28;20244;-60
2022/12/10 08:33:28;;;;;;;2.77;2.00;;;;;;;;;;5043956;28;20174;-60
2022/12/10 08:35:59;;;;;;;2.80;1.90;;;1.90;99.90;;;;;;5039903;28;20231;-59
2022/12/10 08:38:25;;;;;;;3.33;1.90;;;;;;;;;;5050801;28;20227;-61
2022/12/10 08:40:51;;;;;;;5.63;1.73;;;2.00;99.90;;;;;;5043380;28;20178;-61
2022/12/10 08:43:16;;;;;;;3.97;1.80;;;;;;;;;;5030810;28;20182;-61
2022/12/10 08:45:42;;;;;;;8.03;1.93;;;;;;;;;;5041074;28;20256;-61
2022/12/10 08:48:08;;;;;;;4.67;2.00;;;2.20;99.90;;;;;;5050748;28;20568;-61
2022/12/10 08:50:34;;;;;;;3.13;1.70;;;2.00;99.90;;;;;;5051065;28;20217;-60
2022/12/10 08:53:00;;;;;;;2.07;1.43;;;;;;;;;;5050701;28;20242;-60
2022/12/10 08:55:26;;;;;;;3.57;1.77;;;1.60;99.90;;;;;;5050671;28;20174;-61
2022/12/10 08:57:52;;;;;;;2.63;1.57;;;;;;;;;;5048240;28;20533;-61
2022/12/10 09:00:18;;;;;;;3.30;1.53;;;2.90;99.90;;;;;;5050682;28;20253;-61
2022/12/10 09:02:45;;;;;;;3.83;1.83;;;3.10;99.90;;;;;;5050739;28;20201;-61
2022/12/10 09:05:11;;;;;;;2.33;1.40;;;;;;;;;;5041144;28;20670;-59
2022/12/10 09:07:36;;;;;;;4.50;1.60;;;3.70;99.90;;;;;;5034949;28;20181;-59
2022/12/10 09:10:03;;;;;;;5.07;1.50;;;4.50;99.90;;;;;;5030546;28;20201;-59
2022/12/10 09:12:29;;;;;;;3.80;1.63;;;4.50;99.90;;;;;;5038399;28;20181;-58
2022/12/10 09:14:55;;;;;;;3.70;2.13;;;4.00;99.90;;;;;;5049642;28;20552;-59
2022/12/10 09:17:20;;;;;;;4.33;2.30;;;3.90;99.90;;;;;;5037541;28;20194;-61
2022/12/10 09:19:46;;;;;;;6.87;2.10;;;3.70;99.90;;;;;;5035558;28;20644;-60
2022/12/10 09:22:12;;;;;;;3.87;2.00;;;3.90;99.90;;;;;;5053860;28;20200;-60
2022/12/10 09:24:37;;;;;;;6.23;2.50;;;3.40;99.90;;;;;;5036375;28;20632;-60
2022/12/10 09:27:03;;;;;;;4.70;2.33;;;3.60;99.90;;;;;;5053702;28;20643;-60
2022/12/10 09:29:29;;;;;;;3.83;2.23;;;;;;;;;;5053720;28;20227;-61
2022/12/10 09:31:55;;;;;;;5.20;2.60;;;3.70;99.90;;;;;;5053815;28;20219;-60
2022/12/10 09:34:21;;;;;;;4.67;2.27;;;4.20;99.90;;;;;;5053768;28;20244;-57
2022/12/10 09:36:47;;;;;;;4.63;2.53;;;4.00;99.90;;;;;;5053457;28;20189;-57
2022/12/10 09:39:13;;;;;;;5.00;1.93;;;;;;;;;;5046182;28;20197;-58
2022/12/10 09:41:49;;;;;;;5.07;1.50;;;4.30;99.90;;;;;;5038123;28;20188;-57
2022/12/10 09:44:28;;;;;;;3.03;1.17;;;4.20;99.90;;;;;;5043178;28;20877;-58
2022/12/10 09:47:00;;;;;;;1.33;0.90;;;4.10;99.90;;;;;;5052950;28;20185;-59
2022/12/10 09:49:34;;;;;;;0.90;0.60;;;4.30;99.90;;;;;;5052741;28;20205;-59
2022/12/10 09:52:02;;;;;;;1.53;0.90;;;4.10;99.90;;;;;;5052903;28;20185;-58
2022/12/10 09:54:32;;;;;;;1.37;0.70;;;4.50;99.90;;;;;;5050714;28;20180;-58
2022/12/10 09:57:00;;;;;;;1.93;1.07;;;4.10;99.90;;;;;;5046057;28;20685;-58
2022/12/10 09:59:34;;;;;;;1.73;1.07;;;4.50;99.90;;;;;;5043713;28;20633;-58
2022/12/10 10:02:20;;;;;;;1.57;0.80;;;4.20;99.90;;;;;;5034737;28;20193;-60
2022/12/10 10:04:47;;;;;;;0.90;0.70;;;;;;;;;;5051427;28;20264;-59
2022/12/10 10:07:24;;;;;;;2.20;0.87;;;4.40;99.90;;;;;;5041873;28;20193;-59
2022/12/10 10:09:54;;;;;;;3.43;1.73;;;4.50;99.90;;;;;;5032841;28;20561;-59
2022/12/10 10:12:20;;;;;;;2.10;0.80;;;;;;;;;;5032595;28;20186;-59
2022/12/10 10:14:46;;;;;;;1.70;0.80;;;4.90;99.90;;;;;;5041088;28;20671;-59
2022/12/10 10:17:45;;;;;;;1.03;0.73;;;5.00;99.90;;;;;;5050666;28;20260;-59
2022/12/10 10:20:12;;;;;;;0.80;0.60;;;5.30;99.90;;;;;;5052491;28;20173;-59
2022/12/10 10:22:38;;;;;;;1.03;0.60;;;;;;;;;;5051910;28;20180;-59
2022/12/10 10:25:12;;;;;;;1.70;0.80;;;5.30;99.90;;;;;;5040283;28;20180;-60
2022/12/10 10:27:37;;;;;;;2.03;0.67;;;5.40;99.90;;;;;;5052857;28;20252;-60
2022/12/10 10:30:06;;;;;;;1.70;0.87;;;5.60;99.90;;;;;;5050906;28;20296;-59
2022/12/10 10:32:40;;;;;;;2.47;0.80;;;6.60;99.90;;;;;;5051713;28;20181;-59
2022/12/10 10:35:06;;;;;;;1.13;0.70;;;;;;;;;;5050223;28;20694;-60
2022/12/10 10:37:35;;;;;;;4.83;1.70;;;7.80;99.90;;;;;;5052418;28;20177;-57
2022/12/10 10:40:01;;;;;;;3.90;1.37;;;7.90;99.90;;;;;;5052753;28;20177;-60
2022/12/10 10:42:40;;;;;;;3.27;1.07;;;7.80;99.90;;;;;;5052813;28;20654;-60
2022/12/10 10:45:41;;;;;;;2.43;1.07;;;8.80;99.90;;;;;;5052644;28;20192;-60
2022/12/10 10:48:16;;;;;;;1.80;1.13;;;8.40;99.90;;;;;;5052825;28;20181;-60
2022/12/10 10:51:16;;;;;;;2.57;1.20;;;8.00;99.90;;;;;;5052547;28;20216;-60
2022/12/10 10:53:44;;;;;;;1.47;1.00;;;6.90;99.90;;;;;;5044735;28;20254;-60
2022/12/10 10:56:16;;;;;;;2.30;0.90;;;6.20;99.90;;;;;;5050475;28;20169;-59
2022/12/10 10:59:06;;;;;;;2.70;1.10;;;6.30;99.90;;;;;;5050559;28;20177;-59
2022/12/10 11:01:44;;;;;;;1.30;1.00;;;6.60;99.90;;;;;;5040412;28;20222;-59
2022/12/10 11:04:10;;;;;;;4.33;1.20;;;9.20;99.90;;;;;;5050357;28;20169;-60
2022/12/10 11:06:36;;;;;;;7.90;1.90;;;;;;;;;;5051059;28;20173;-60
2022/12/10 11:09:05;;;;;;;2.33;1.07;;;9.70;99.90;;;;;;5051833;28;20173;-59
2022/12/10 11:11:36;;;;;;;6.93;1.00;;;11.00;99.90;;;;;;5034127;28;20221;-59
2022/12/10 11:14:15;;;;;;;2.30;1.20;;;10.10;99.90;;;;;;5052153;28;20244;-59
2022/12/10 11:16:42;;;;;;;3.20;1.40;;;;;;;;;;5051985;28;20172;-59
2022/12/10 11:19:22;;;;;;;8.67;3.23;;;10.60;99.90;;;;;;5051910;28;20179;-59
2022/12/10 11:21:49;;;;;;;5.40;1.50;;;10.20;99.90;;;;;;5051761;28;20259;-59
2022/12/10 11:24:18;;;;;;;2.87;1.47;;;9.70;99.90;;;;;;5051928;28;20173;-59
2022/12/10 11:26:55;;;;;;;1.00;0.67;;;9.50;99.90;;;;;;5051773;28;20331;-59
2022/12/10 11:29:51;;;;;;;3.20;1.73;;;9.40;99.90;;;;;;5051697;28;20161;-59
2022/12/10 11:32:44;;;;;;;3.23;1.60;;;9.70;99.90;;;;;;5051854;28;20197;-59
2022/12/10 11:35:24;;;;;;;5.27;1.80;;;10.00;99.90;;;;;;5050352;28;20221;-59
2022/12/10 11:38:24;;;;;;;2.90;1.30;;;11.30;99.90;;;;;;5051715;28;20184;-59
2022/12/10 11:41:14;;;;;;;4.73;2.70;;;12.20;99.90;;;;;;5051303;28;20173;-59
2022/12/10 11:44:06;;;;;;;2.27;1.40;;;15.50;99.90;;;;;;5009879;28;20264;-60
2022/12/10 11:46:53;;;;;;;2.50;1.20;;;17.00;99.90;;;;;;5051339;28;20169;-60
2022/12/10 11:49:47;;;;;;;2.03;1.27;;;17.00;99.90;;;;;;5051310;28;20181;-59
2022/12/10 11:52:13;;;;;;;2.13;1.15;;;;;;;;;;5051088;28;20250;-58
2022/12/10 11:55:06;;;;;;;3.42;2.40;;;19.10;99.90;;;;;;5051304;28;20280;-58
2022/12/10 11:57:47;;;;;;;2.00;1.10;;;19.40;99.90;;;;;;5051511;28;20173;-58
2022/12/10 12:00:22;;;;;;;2.25;1.88;;;20.10;99.90;;;;;;5051093;28;20243;-57
2022/12/10 12:03:15;;;;;;;3.17;1.10;;;19.70;99.90;;;;;;5051036;28;20203;-58
2022/12/10 12:06:08;;;;;;;4.03;2.00;;;20.60;99.90;;;;;;5051210;28;20173;-58
2022/12/10 12:08:54;;;;;;;2.15;0.98;;;21.60;99.90;;;;;;5051136;28;20177;-58
2022/12/10 12:11:40;;;;;;;1.52;1.38;;;21.20;99.90;;;;;;5050977;28;20209;-59
2022/12/10 12:14:13;;;;;;;1.42;0.70;;;19.80;99.90;;;;;;5050986;28;20165;-59
2022/12/10 12:17:00;;;;;;;2.75;1.77;;;19.40;99.90;;;;;;5051075;28;20169;-58
2022/12/10 12:19:39;;;;;;;2.88;1.90;;;20.80;99.90;;;;;;5034400;28;20185;-58
2022/12/10 12:22:25;;;;;;;6.05;4.30;;;19.50;99.90;;;;;;5041036;28;20226;-59
2022/12/10 12:24:59;;;;;;;4.82;2.35;;;16.30;99.90;;;;;;5050675;28;20180;-58
2022/12/10 12:27:38;;;;;;;4.35;3.05;;;17.70;99.90;;;;;;5050886;28;20183;-58
2022/12/10 12:30:19;;;;;;;2.47;0.63;;;18.80;99.90;;;;;;5049333;28;20204;-57
2022/12/10 12:33:01;;;;;;;1.17;1.05;;;17.90;99.90;;;;;;5050578;28;20238;-58
2022/12/10 12:35:41;;;;;;;1.40;0.82;;;19.10;99.90;;;;;;5048356;28;20221;-58
2022/12/10 12:38:26;;;;;;;3.67;2.88;;;18.70;99.90;;;;;;5049752;28;20207;-57
2022/12/10 12:41:01;;;;;;;1.40;0.90;;;19.70;99.90;;;;;;5045726;28;20188;-59
2022/12/10 12:43:40;;;;;;;2.15;1.15;;;19.30;99.90;;;;;;5031201;28;20173;-58
2022/12/10 12:46:16;;;;;;;0.98;0.73;;;17.20;99.90;;;;;;5032242;28;20177;-58
2022/12/10 12:49:03;;;;;;;1.25;0.43;;;18.50;99.90;;;;;;5030770;28;20181;-58
2022/12/10 12:51:36;;;;;;;1.77;1.23;;;19.60;99.90;;;;;;5042847;28;20208;-57
2022/12/10 12:54:02;;;;;;;2.05;1.42;;;19.70;99.90;;;;;;5042752;28;20622;-57
2022/12/10 12:56:46;;;;;;;1.75;0.82;;;20.10;99.90;;;;;;5053933;28;20207;-56
2022/12/10 12:59:30;;;;;;;3.95;1.92;;;19.90;99.90;;;;;;5054411;28;20177;-57
2022/12/10 13:02:16;;;;;;;2.38;1.27;;;20.10;99.90;;;;;;5051743;28;20632;-57
2022/12/10 13:04:42;;;;;;;1.60;1.00;;;20.30;99.90;;;;;;5049232;28;20209;-57
2022/12/10 13:07:14;;;;;;;2.95;1.35;;;20.50;99.90;;;;;;5053529;28;20177;-57
2022/12/10 13:09:48;;;;;;;2.55;0.98;;;20.50;99.90;;;;;;5036477;28;20193;-56
2022/12/10 13:12:14;;;;;;;1.55;0.93;;;18.40;99.90;;;;;;5046416;28;20177;-57
2022/12/10 13:14:49;;;;;;;1.85;1.15;;;18.00;99.90;;;;;;5034301;28;20173;-57
2022/12/10 13:17:27;;;;;;;3.35;1.20;;;18.50;99.90;;;;;;5034240;28;20177;-57